sensor_id;sensor_type;location;lat;lon;timestamp;P1;durP1;ratioP1;P2;durP2;ratioP2
29416;SDS011;28421;51.030;4.006;2024-02-16T00:00:26;2.53;;;1.83;;
29416;SDS011;28421;51.030;4.006;2024-02-16T00:02:52;3.60;;;2.10;;
29416;SDS011;28421;51.030;4.006;2024-02-16T00:05:17;4.85;;;2.60;;
29416;SDS011;28421;51.030;4.006;2024-02-16T00:07:43;5.05;;;1.85;;
29416;SDS011;28421;51.030;4.006;2024-02-16T00:10:09;6.03;;;2.15;;
29416;SDS011;28421;51.030;4.006;2024-02-16T00:12:35;4.45;;;1.85;;
29416;SDS011;28421;51.030;4.006;2024-02-16T00:15:01;3.30;;;2.20;;
29416;SDS011;28421;51.030;4.006;2024-02-16T00:17:28;2.95;;;2.33;;
29416;SDS011;28421;51.030;4.006;2024-02-16T00:19:56;2.72;;;1.98;;
29416;SDS011;28421;51.030;4.006;2024-02-16T00:22:22;4.18;;;2.45;;
29416;SDS011;28421;51.030;4.006;2024-02-16T00:24:49;2.80;;;1.95;;
29416;SDS011;28421;51.030;4.006;2024-02-16T00:27:15;5.43;;;1.70;;
29416;SDS011;28421;51.030;4.006;2024-02-16T00:29:41;2.15;;;1.90;;
29416;SDS011;28421;51.030;4.006;2024-02-16T00:32:07;6.88;;;2.00;;
29416;SDS011;28421;51.030;4.006;2024-02-16T00:34:33;2.72;;;2.47;;
29416;SDS011;28421;51.030;4.006;2024-02-16T00:37:00;3.10;;;2.13;;
29416;SDS011;28421;51.030;4.006;2024-02-16T00:39:25;5.10;;;3.33;;
29416;SDS011;28421;51.030;4.006;2024-02-16T00:41:51;3.65;;;2.17;;
29416;SDS011;28421;51.030;4.006;2024-02-16T00:44:16;5.80;;;2.25;;
29416;SDS011;28421;51.030;4.006;2024-02-16T00:46:43;1.90;;;1.73;;
29416;SDS011;28421;51.030;4.006;2024-02-16T00:49:11;5.47;;;2.22;;
29416;SDS011;28421;51.030;4.006;2024-02-16T00:51:37;2.95;;;2.45;;
29416;SDS011;28421;51.030;4.006;2024-02-16T00:54:02;4.20;;;2.30;;
29416;SDS011;28421;51.030;4.006;2024-02-16T00:56:29;6.28;;;2.13;;
29416;SDS011;28421;51.030;4.006;2024-02-16T00:58:55;12.43;;;2.90;;
29416;SDS011;28421;51.030;4.006;2024-02-16T01:01:21;3.75;;;2.45;;
29416;SDS011;28421;51.030;4.006;2024-02-16T01:03:48;6.65;;;2.67;;
29416;SDS011;28421;51.030;4.006;2024-02-16T01:06:14;6.82;;;2.45;;
29416;SDS011;28421;51.030;4.006;2024-02-16T01:08:40;7.20;;;2.65;;
29416;SDS011;28421;51.030;4.006;2024-02-16T01:11:06;3.80;;;2.45;;
29416;SDS011;28421;51.030;4.006;2024-02-16T01:13:32;4.57;;;2.78;;
29416;SDS011;28421;51.030;4.006;2024-02-16T01:15:58;6.47;;;2.22;;
29416;SDS011;28421;51.030;4.006;2024-02-16T01:18:24;6.22;;;2.72;;
29416;SDS011;28421;51.030;4.006;2024-02-16T01:20:50;5.65;;;2.88;;
29416;SDS011;28421;51.030;4.006;2024-02-16T01:23:16;4.20;;;2.33;;
29416;SDS011;28421;51.030;4.006;2024-02-16T01:25:42;5.97;;;2.58;;
29416;SDS011;28421;51.030;4.006;2024-02-16T01:28:07;5.63;;;2.97;;
29416;SDS011;28421;51.030;4.006;2024-02-16T01:30:33;6.25;;;3.38;;
29416;SDS011;28421;51.030;4.006;2024-02-16T01:32:58;7.63;;;2.22;;
29416;SDS011;28421;51.030;4.006;2024-02-16T01:35:23;4.88;;;2.50;;
29416;SDS011;28421;51.030;4.006;2024-02-16T01:37:49;6.80;;;3.65;;
29416;SDS011;28421;51.030;4.006;2024-02-16T01:40:14;5.60;;;3.08;;
29416;SDS011;28421;51.030;4.006;2024-02-16T01:42:42;6.80;;;3.15;;
29416;SDS011;28421;51.030;4.006;2024-02-16T01:45:09;3.00;;;2.30;;
29416;SDS011;28421;51.030;4.006;2024-02-16T01:47:39;3.67;;;2.65;;
29416;SDS011;28421;51.030;4.006;2024-02-16T01:50:07;2.58;;;1.92;;
29416;SDS011;28421;51.030;4.006;2024-02-16T01:52:34;4.57;;;2.70;;
29416;SDS011;28421;51.030;4.006;2024-02-16T01:55:02;4.03;;;2.60;;
29416;SDS011;28421;51.030;4.006;2024-02-16T01:57:34;9.85;;;3.92;;
29416;SDS011;28421;51.030;4.006;2024-02-16T01:59:59;6.75;;;3.50;;
29416;SDS011;28421;51.030;4.006;2024-02-16T02:02:26;1.98;;;1.77;;
29416;SDS011;28421;51.030;4.006;2024-02-16T02:04:52;6.55;;;2.63;;
29416;SDS011;28421;51.030;4.006;2024-02-16T02:07:18;5.78;;;1.95;;
29416;SDS011;28421;51.030;4.006;2024-02-16T02:09:43;7.00;;;2.33;;
29416;SDS011;28421;51.030;4.006;2024-02-16T02:12:09;3.20;;;2.15;;
29416;SDS011;28421;51.030;4.006;2024-02-16T02:14:35;4.88;;;1.98;;
29416;SDS011;28421;51.030;4.006;2024-02-16T02:17:01;3.53;;;2.20;;
29416;SDS011;28421;51.030;4.006;2024-02-16T02:19:28;3.35;;;2.10;;
29416;SDS011;28421;51.030;4.006;2024-02-16T02:21:54;4.45;;;2.53;;
29416;SDS011;28421;51.030;4.006;2024-02-16T02:24:20;6.97;;;2.75;;
29416;SDS011;28421;51.030;4.006;2024-02-16T02:26:46;6.18;;;2.38;;
29416;SDS011;28421;51.030;4.006;2024-02-16T02:29:11;3.65;;;2.25;;
29416;SDS011;28421;51.030;4.006;2024-02-16T02:31:37;4.35;;;2.25;;
29416;SDS011;28421;51.030;4.006;2024-02-16T02:34:02;5.60;;;2.17;;
29416;SDS011;28421;51.030;4.006;2024-02-16T02:36:30;5.70;;;1.92;;
29416;SDS011;28421;51.030;4.006;2024-02-16T02:38:56;2.42;;;1.77;;
29416;SDS011;28421;51.030;4.006;2024-02-16T02:41:22;3.40;;;1.73;;
29416;SDS011;28421;51.030;4.006;2024-02-16T02:43:48;4.35;;;1.77;;
29416;SDS011;28421;51.030;4.006;2024-02-16T02:46:17;2.35;;;1.77;;
29416;SDS011;28421;51.030;4.006;2024-02-16T02:48:46;4.63;;;1.98;;
29416;SDS011;28421;51.030;4.006;2024-02-16T02:51:11;2.80;;;1.65;;
29416;SDS011;28421;51.030;4.006;2024-02-16T02:53:37;1.50;;;1.25;;
29416;SDS011;28421;51.030;4.006;2024-02-16T02:56:03;5.97;;;1.75;;
29416;SDS011;28421;51.030;4.006;2024-02-16T02:58:29;5.40;;;1.20;;
29416;SDS011;28421;51.030;4.006;2024-02-16T03:00:55;4.03;;;1.48;;
29416;SDS011;28421;51.030;4.006;2024-02-16T03:03:21;2.35;;;1.52;;
29416;SDS011;28421;51.030;4.006;2024-02-16T03:05:47;2.15;;;1.75;;
29416;SDS011;28421;51.030;4.006;2024-02-16T03:08:13;1.95;;;1.77;;
29416;SDS011;28421;51.030;4.006;2024-02-16T03:10:39;5.00;;;1.92;;
29416;SDS011;28421;51.030;4.006;2024-02-16T03:13:05;1.50;;;1.40;;
29416;SDS011;28421;51.030;4.006;2024-02-16T03:15:33;2.95;;;1.48;;
29416;SDS011;28421;51.030;4.006;2024-02-16T03:18:01;1.98;;;1.30;;
29416;SDS011;28421;51.030;4.006;2024-02-16T03:20:27;1.45;;;1.33;;
29416;SDS011;28421;51.030;4.006;2024-02-16T03:22:52;0.98;;;0.98;;
29416;SDS011;28421;51.030;4.006;2024-02-16T03:25:18;1.70;;;1.50;;
29416;SDS011;28421;51.030;4.006;2024-02-16T03:27:43;1.23;;;1.13;;
29416;SDS011;28421;51.030;4.006;2024-02-16T03:30:09;6.05;;;1.73;;
29416;SDS011;28421;51.030;4.006;2024-02-16T03:32:35;4.10;;;1.70;;
29416;SDS011;28421;51.030;4.006;2024-02-16T03:35:01;5.90;;;1.60;;
29416;SDS011;28421;51.030;4.006;2024-02-16T03:37:27;2.95;;;1.77;;
29416;SDS011;28421;51.030;4.006;2024-02-16T03:39:52;2.42;;;1.42;;
29416;SDS011;28421;51.030;4.006;2024-02-16T03:42:18;1.25;;;1.15;;
29416;SDS011;28421;51.030;4.006;2024-02-16T03:44:44;2.08;;;1.45;;
29416;SDS011;28421;51.030;4.006;2024-02-16T03:47:10;1.25;;;1.15;;
29416;SDS011;28421;51.030;4.006;2024-02-16T03:49:35;3.95;;;1.65;;
29416;SDS011;28421;51.030;4.006;2024-02-16T03:52:01;1.20;;;1.20;;
29416;SDS011;28421;51.030;4.006;2024-02-16T03:54:27;0.88;;;0.88;;
29416;SDS011;28421;51.030;4.006;2024-02-16T03:56:55;1.65;;;1.55;;
29416;SDS011;28421;51.030;4.006;2024-02-16T03:59:21;1.15;;;1.13;;
29416;SDS011;28421;51.030;4.006;2024-02-16T04:01:46;2.20;;;1.80;;
29416;SDS011;28421;51.030;4.006;2024-02-16T04:04:12;1.35;;;1.05;;
29416;SDS011;28421;51.030;4.006;2024-02-16T04:06:38;0.85;;;0.85;;
29416;SDS011;28421;51.030;4.006;2024-02-16T04:09:04;1.27;;;1.10;;
29416;SDS011;28421;51.030;4.006;2024-02-16T04:11:33;2.45;;;1.30;;
29416;SDS011;28421;51.030;4.006;2024-02-16T04:13:59;1.10;;;1.00;;
29416;SDS011;28421;51.030;4.006;2024-02-16T04:16:25;4.25;;;1.63;;
29416;SDS011;28421;51.030;4.006;2024-02-16T04:18:51;2.45;;;1.45;;
29416;SDS011;28421;51.030;4.006;2024-02-16T04:21:17;1.55;;;1.17;;
29416;SDS011;28421;51.030;4.006;2024-02-16T04:23:43;2.47;;;1.42;;
29416;SDS011;28421;51.030;4.006;2024-02-16T04:26:09;4.25;;;1.63;;
29416;SDS011;28421;51.030;4.006;2024-02-16T04:28:35;3.35;;;1.33;;
29416;SDS011;28421;51.030;4.006;2024-02-16T04:31:01;4.10;;;2.00;;
29416;SDS011;28421;51.030;4.006;2024-02-16T04:33:27;1.65;;;1.55;;
29416;SDS011;28421;51.030;4.006;2024-02-16T04:35:52;1.60;;;1.35;;
29416;SDS011;28421;51.030;4.006;2024-02-16T04:38:18;2.97;;;1.40;;
29416;SDS011;28421;51.030;4.006;2024-02-16T04:40:44;2.58;;;1.55;;
29416;SDS011;28421;51.030;4.006;2024-02-16T04:43:10;1.88;;;1.70;;
29416;SDS011;28421;51.030;4.006;2024-02-16T04:45:36;3.03;;;2.30;;
29416;SDS011;28421;51.030;4.006;2024-02-16T04:48:05;1.15;;;1.05;;
29416;SDS011;28421;51.030;4.006;2024-02-16T04:50:34;2.97;;;1.52;;
29416;SDS011;28421;51.030;4.006;2024-02-16T04:53:00;2.00;;;1.67;;
29416;SDS011;28421;51.030;4.006;2024-02-16T04:55:29;2.58;;;1.95;;
29416;SDS011;28421;51.030;4.006;2024-02-16T04:57:56;1.60;;;1.50;;
29416;SDS011;28421;51.030;4.006;2024-02-16T05:00:22;3.25;;;2.05;;
29416;SDS011;28421;51.030;4.006;2024-02-16T05:02:48;2.35;;;2.17;;
29416;SDS011;28421;51.030;4.006;2024-02-16T05:05:13;2.25;;;1.52;;
29416;SDS011;28421;51.030;4.006;2024-02-16T05:07:41;4.43;;;2.25;;
29416;SDS011;28421;51.030;4.006;2024-02-16T05:10:10;2.35;;;2.15;;
29416;SDS011;28421;51.030;4.006;2024-02-16T05:12:36;7.47;;;2.00;;
29416;SDS011;28421;51.030;4.006;2024-02-16T05:15:03;2.45;;;1.80;;
29416;SDS011;28421;51.030;4.006;2024-02-16T05:17:29;2.17;;;1.85;;
29416;SDS011;28421;51.030;4.006;2024-02-16T05:19:54;3.30;;;2.33;;
29416;SDS011;28421;51.030;4.006;2024-02-16T05:22:19;1.30;;;1.20;;
29416;SDS011;28421;51.030;4.006;2024-02-16T05:24:47;1.73;;;1.63;;
29416;SDS011;28421;51.030;4.006;2024-02-16T05:27:13;1.65;;;1.52;;
29416;SDS011;28421;51.030;4.006;2024-02-16T05:29:40;1.65;;;1.48;;
29416;SDS011;28421;51.030;4.006;2024-02-16T05:32:06;1.92;;;1.77;;
29416;SDS011;28421;51.030;4.006;2024-02-16T05:34:31;2.90;;;2.05;;
29416;SDS011;28421;51.030;4.006;2024-02-16T05:37:05;2.42;;;2.08;;
29416;SDS011;28421;51.030;4.006;2024-02-16T05:39:36;1.85;;;1.73;;
29416;SDS011;28421;51.030;4.006;2024-02-16T05:42:08;2.60;;;2.17;;
29416;SDS011;28421;51.030;4.006;2024-02-16T05:44:34;2.40;;;2.20;;
29416;SDS011;28421;51.030;4.006;2024-02-16T05:46:59;4.15;;;2.45;;
29416;SDS011;28421;51.030;4.006;2024-02-16T05:49:25;3.72;;;2.40;;
29416;SDS011;28421;51.030;4.006;2024-02-16T05:51:50;4.05;;;2.83;;
29416;SDS011;28421;51.030;4.006;2024-02-16T05:54:36;3.85;;;1.83;;
29416;SDS011;28421;51.030;4.006;2024-02-16T05:57:01;2.47;;;2.05;;
29416;SDS011;28421;51.030;4.006;2024-02-16T05:59:27;4.68;;;2.72;;
29416;SDS011;28421;51.030;4.006;2024-02-16T06:01:53;6.80;;;3.40;;
29416;SDS011;28421;51.030;4.006;2024-02-16T06:04:18;1.45;;;1.27;;
29416;SDS011;28421;51.030;4.006;2024-02-16T06:06:43;1.30;;;1.20;;
29416;SDS011;28421;51.030;4.006;2024-02-16T06:09:09;7.53;;;1.95;;
29416;SDS011;28421;51.030;4.006;2024-02-16T06:11:37;1.00;;;0.88;;
29416;SDS011;28421;51.030;4.006;2024-02-16T06:14:04;3.42;;;2.13;;
29416;SDS011;28421;51.030;4.006;2024-02-16T06:16:29;2.05;;;1.75;;
29416;SDS011;28421;51.030;4.006;2024-02-16T06:18:55;3.20;;;2.20;;
29416;SDS011;28421;51.030;4.006;2024-02-16T06:21:20;1.77;;;1.20;;
29416;SDS011;28421;51.030;4.006;2024-02-16T06:23:45;1.95;;;1.75;;
29416;SDS011;28421;51.030;4.006;2024-02-16T06:26:11;1.73;;;1.27;;
29416;SDS011;28421;51.030;4.006;2024-02-16T06:28:37;8.20;;;2.33;;
29416;SDS011;28421;51.030;4.006;2024-02-16T06:31:02;1.63;;;1.42;;
29416;SDS011;28421;51.030;4.006;2024-02-16T06:33:28;1.50;;;1.40;;
29416;SDS011;28421;51.030;4.006;2024-02-16T06:35:53;2.03;;;1.60;;
29416;SDS011;28421;51.030;4.006;2024-02-16T06:38:19;3.17;;;2.00;;
29416;SDS011;28421;51.030;4.006;2024-02-16T06:40:44;2.03;;;1.63;;
29416;SDS011;28421;51.030;4.006;2024-02-16T06:43:10;3.33;;;1.67;;
29416;SDS011;28421;51.030;4.006;2024-02-16T06:45:35;1.33;;;1.25;;
29416;SDS011;28421;51.030;4.006;2024-02-16T06:48:01;2.30;;;1.60;;
29416;SDS011;28421;51.030;4.006;2024-02-16T06:50:27;3.65;;;1.58;;
29416;SDS011;28421;51.030;4.006;2024-02-16T06:52:52;2.22;;;1.63;;
29416;SDS011;28421;51.030;4.006;2024-02-16T06:55:20;2.05;;;1.02;;
29416;SDS011;28421;51.030;4.006;2024-02-16T06:57:47;2.30;;;1.75;;
29416;SDS011;28421;51.030;4.006;2024-02-16T07:00:13;1.55;;;1.40;;
29416;SDS011;28421;51.030;4.006;2024-02-16T07:02:40;1.63;;;1.27;;
29416;SDS011;28421;51.030;4.006;2024-02-16T07:05:07;2.38;;;2.17;;
29416;SDS011;28421;51.030;4.006;2024-02-16T07:07:33;2.63;;;1.27;;
29416;SDS011;28421;51.030;4.006;2024-02-16T07:10:01;2.55;;;1.95;;
29416;SDS011;28421;51.030;4.006;2024-02-16T07:12:27;2.60;;;1.30;;
29416;SDS011;28421;51.030;4.006;2024-02-16T07:14:53;2.30;;;1.73;;
29416;SDS011;28421;51.030;4.006;2024-02-16T07:17:19;2.30;;;1.73;;
29416;SDS011;28421;51.030;4.006;2024-02-16T07:19:44;3.83;;;2.00;;
29416;SDS011;28421;51.030;4.006;2024-02-16T07:22:10;1.30;;;1.25;;
29416;SDS011;28421;51.030;4.006;2024-02-16T07:24:37;2.97;;;1.67;;
29416;SDS011;28421;51.030;4.006;2024-02-16T07:27:03;3.17;;;2.33;;
29416;SDS011;28421;51.030;4.006;2024-02-16T07:29:28;2.22;;;1.63;;
29416;SDS011;28421;51.030;4.006;2024-02-16T07:31:54;1.83;;;1.33;;
29416;SDS011;28421;51.030;4.006;2024-02-16T07:34:21;3.13;;;1.40;;
29416;SDS011;28421;51.030;4.006;2024-02-16T07:36:46;1.67;;;1.38;;
29416;SDS011;28421;51.030;4.006;2024-02-16T07:39:11;3.65;;;2.28;;
29416;SDS011;28421;51.030;4.006;2024-02-16T07:41:37;3.13;;;1.75;;
29416;SDS011;28421;51.030;4.006;2024-02-16T07:44:03;1.63;;;1.27;;
29416;SDS011;28421;51.030;4.006;2024-02-16T07:46:29;1.90;;;1.23;;
29416;SDS011;28421;51.030;4.006;2024-02-16T07:48:55;5.47;;;2.05;;
29416;SDS011;28421;51.030;4.006;2024-02-16T07:51:20;1.95;;;1.55;;
29416;SDS011;28421;51.030;4.006;2024-02-16T07:53:46;2.53;;;1.83;;
29416;SDS011;28421;51.030;4.006;2024-02-16T07:56:12;3.67;;;1.52;;
29416;SDS011;28421;51.030;4.006;2024-02-16T07:58:38;2.97;;;2.40;;
29416;SDS011;28421;51.030;4.006;2024-02-16T08:01:07;4.05;;;2.35;;
29416;SDS011;28421;51.030;4.006;2024-02-16T08:03:32;3.17;;;1.95;;
29416;SDS011;28421;51.030;4.006;2024-02-16T08:05:58;2.70;;;1.90;;
29416;SDS011;28421;51.030;4.006;2024-02-16T08:08:24;2.83;;;1.70;;
29416;SDS011;28421;51.030;4.006;2024-02-16T08:10:50;4.20;;;1.98;;
29416;SDS011;28421;51.030;4.006;2024-02-16T08:13:17;2.20;;;1.75;;
29416;SDS011;28421;51.030;4.006;2024-02-16T08:15:43;2.20;;;2.00;;
29416;SDS011;28421;51.030;4.006;2024-02-16T08:18:09;2.50;;;1.67;;
29416;SDS011;28421;51.030;4.006;2024-02-16T08:20:36;3.30;;;2.00;;
29416;SDS011;28421;51.030;4.006;2024-02-16T08:23:02;2.63;;;1.75;;
29416;SDS011;28421;51.030;4.006;2024-02-16T08:25:28;2.53;;;1.75;;
29416;SDS011;28421;51.030;4.006;2024-02-16T08:27:55;3.30;;;2.42;;
29416;SDS011;28421;51.030;4.006;2024-02-16T08:30:21;3.22;;;1.58;;
29416;SDS011;28421;51.030;4.006;2024-02-16T08:32:47;6.15;;;1.88;;
29416;SDS011;28421;51.030;4.006;2024-02-16T08:35:13;2.95;;;1.85;;
29416;SDS011;28421;51.030;4.006;2024-02-16T08:37:39;3.75;;;2.53;;
29416;SDS011;28421;51.030;4.006;2024-02-16T08:40:05;3.20;;;1.40;;
29416;SDS011;28421;51.030;4.006;2024-02-16T08:42:31;2.00;;;1.25;;
29416;SDS011;28421;51.030;4.006;2024-02-16T08:44:57;2.92;;;1.50;;
29416;SDS011;28421;51.030;4.006;2024-02-16T08:47:25;1.90;;;1.80;;
29416;SDS011;28421;51.030;4.006;2024-02-16T08:49:51;3.60;;;2.45;;
29416;SDS011;28421;51.030;4.006;2024-02-16T08:52:17;2.92;;;2.08;;
29416;SDS011;28421;51.030;4.006;2024-02-16T08:54:43;5.88;;;2.38;;
29416;SDS011;28421;51.030;4.006;2024-02-16T08:57:09;5.15;;;1.88;;
29416;SDS011;28421;51.030;4.006;2024-02-16T08:59:35;4.18;;;1.98;;
29416;SDS011;28421;51.030;4.006;2024-02-16T09:02:00;2.65;;;1.95;;
29416;SDS011;28421;51.030;4.006;2024-02-16T09:04:26;3.08;;;2.47;;
29416;SDS011;28421;51.030;4.006;2024-02-16T09:06:51;4.13;;;1.30;;
29416;SDS011;28421;51.030;4.006;2024-02-16T09:09:17;2.45;;;1.90;;
29416;SDS011;28421;51.030;4.006;2024-02-16T09:11:43;1.92;;;1.48;;
29416;SDS011;28421;51.030;4.006;2024-02-16T09:14:08;6.78;;;1.90;;
29416;SDS011;28421;51.030;4.006;2024-02-16T09:16:34;2.33;;;1.60;;
29416;SDS011;28421;51.030;4.006;2024-02-16T09:18:59;1.85;;;1.10;;
29416;SDS011;28421;51.030;4.006;2024-02-16T09:21:25;1.65;;;1.52;;
29416;SDS011;28421;51.030;4.006;2024-02-16T09:23:54;2.15;;;1.95;;
29416;SDS011;28421;51.030;4.006;2024-02-16T09:26:23;2.00;;;1.73;;
29416;SDS011;28421;51.030;4.006;2024-02-16T09:28:51;2.58;;;2.25;;
29416;SDS011;28421;51.030;4.006;2024-02-16T09:31:18;3.28;;;1.85;;
29416;SDS011;28421;51.030;4.006;2024-02-16T09:33:43;2.58;;;2.25;;
29416;SDS011;28421;51.030;4.006;2024-02-16T09:36:10;1.77;;;1.67;;
29416;SDS011;28421;51.030;4.006;2024-02-16T09:38:36;3.40;;;2.50;;
29416;SDS011;28421;51.030;4.006;2024-02-16T09:41:01;3.25;;;1.80;;
29416;SDS011;28421;51.030;4.006;2024-02-16T09:43:27;5.07;;;2.13;;
29416;SDS011;28421;51.030;4.006;2024-02-16T09:45:55;7.38;;;2.30;;
29416;SDS011;28421;51.030;4.006;2024-02-16T09:48:22;2.50;;;2.03;;
29416;SDS011;28421;51.030;4.006;2024-02-16T09:50:50;3.65;;;1.73;;
29416;SDS011;28421;51.030;4.006;2024-02-16T09:53:19;3.45;;;2.30;;
29416;SDS011;28421;51.030;4.006;2024-02-16T09:55:49;1.45;;;1.33;;
29416;SDS011;28421;51.030;4.006;2024-02-16T09:58:15;2.15;;;1.67;;
29416;SDS011;28421;51.030;4.006;2024-02-16T10:03:25;2.67;;;2.08;;
29416;SDS011;28421;51.030;4.006;2024-02-16T10:05:51;1.90;;;1.80;;
29416;SDS011;28421;51.030;4.006;2024-02-16T10:08:20;2.85;;;2.10;;
29416;SDS011;28421;51.030;4.006;2024-02-16T10:10:45;5.20;;;1.98;;
29416;SDS011;28421;51.030;4.006;2024-02-16T10:13:11;2.00;;;1.77;;
29416;SDS011;28421;51.030;4.006;2024-02-16T10:15:36;3.20;;;1.88;;
29416;SDS011;28421;51.030;4.006;2024-02-16T10:18:05;2.50;;;2.22;;
29416;SDS011;28421;51.030;4.006;2024-02-16T10:20:32;4.47;;;2.95;;
29416;SDS011;28421;51.030;4.006;2024-02-16T10:23:02;5.30;;;2.33;;
29416;SDS011;28421;51.030;4.006;2024-02-16T10:25:28;6.72;;;2.30;;
29416;SDS011;28421;51.030;4.006;2024-02-16T10:27:54;5.07;;;1.98;;
29416;SDS011;28421;51.030;4.006;2024-02-16T10:30:21;4.57;;;2.63;;
29416;SDS011;28421;51.030;4.006;2024-02-16T10:32:49;3.47;;;1.77;;
29416;SDS011;28421;51.030;4.006;2024-02-16T10:35:15;2.50;;;2.30;;
29416;SDS011;28421;51.030;4.006;2024-02-16T10:37:43;7.95;;;3.53;;
29416;SDS011;28421;51.030;4.006;2024-02-16T10:40:10;2.35;;;2.13;;
29416;SDS011;28421;51.030;4.006;2024-02-16T10:42:38;5.93;;;2.33;;
29416;SDS011;28421;51.030;4.006;2024-02-16T10:45:06;6.70;;;2.22;;
29416;SDS011;28421;51.030;4.006;2024-02-16T10:47:31;3.92;;;1.88;;
29416;SDS011;28421;51.030;4.006;2024-02-16T10:49:57;3.15;;;2.17;;
29416;SDS011;28421;51.030;4.006;2024-02-16T10:52:23;2.45;;;2.25;;
29416;SDS011;28421;51.030;4.006;2024-02-16T10:54:50;4.53;;;2.50;;
29416;SDS011;28421;51.030;4.006;2024-02-16T10:57:16;3.15;;;2.45;;
29416;SDS011;28421;51.030;4.006;2024-02-16T10:59:43;4.28;;;3.28;;
29416;SDS011;28421;51.030;4.006;2024-02-16T11:02:10;3.63;;;2.90;;
29416;SDS011;28421;51.030;4.006;2024-02-16T11:04:37;4.72;;;3.13;;
29416;SDS011;28421;51.030;4.006;2024-02-16T11:07:10;4.35;;;2.53;;
29416;SDS011;28421;51.030;4.006;2024-02-16T11:09:38;4.30;;;3.33;;
29416;SDS011;28421;51.030;4.006;2024-02-16T11:12:05;3.55;;;2.53;;
29416;SDS011;28421;51.030;4.006;2024-02-16T11:14:37;2.78;;;2.58;;
29416;SDS011;28421;51.030;4.006;2024-02-16T11:17:11;4.45;;;3.47;;
29416;SDS011;28421;51.030;4.006;2024-02-16T11:19:40;4.18;;;3.10;;
29416;SDS011;28421;51.030;4.006;2024-02-16T11:22:07;3.63;;;3.10;;
29416;SDS011;28421;51.030;4.006;2024-02-16T11:24:34;5.97;;;4.85;;
29416;SDS011;28421;51.030;4.006;2024-02-16T11:27:06;9.55;;;4.10;;
29416;SDS011;28421;51.030;4.006;2024-02-16T11:29:33;4.68;;;3.25;;
29416;SDS011;28421;51.030;4.006;2024-02-16T11:32:00;5.03;;;3.53;;
29416;SDS011;28421;51.030;4.006;2024-02-16T11:34:28;6.68;;;4.38;;
29416;SDS011;28421;51.030;4.006;2024-02-16T11:36:54;6.03;;;4.13;;
29416;SDS011;28421;51.030;4.006;2024-02-16T11:39:21;3.88;;;3.47;;
29416;SDS011;28421;51.030;4.006;2024-02-16T11:41:48;4.82;;;3.40;;
29416;SDS011;28421;51.030;4.006;2024-02-16T11:44:25;6.38;;;4.55;;
29416;SDS011;28421;51.030;4.006;2024-02-16T11:46:53;6.53;;;4.43;;
29416;SDS011;28421;51.030;4.006;2024-02-16T11:49:19;7.28;;;3.95;;
29416;SDS011;28421;51.030;4.006;2024-02-16T11:51:44;9.02;;;3.72;;
29416;SDS011;28421;51.030;4.006;2024-02-16T11:54:10;6.82;;;3.38;;
29416;SDS011;28421;51.030;4.006;2024-02-16T11:56:37;4.18;;;3.25;;
29416;SDS011;28421;51.030;4.006;2024-02-16T11:59:04;3.28;;;2.92;;
29416;SDS011;28421;51.030;4.006;2024-02-16T12:01:30;4.72;;;3.40;;
29416;SDS011;28421;51.030;4.006;2024-02-16T12:03:58;3.80;;;3.50;;
29416;SDS011;28421;51.030;4.006;2024-02-16T12:06:23;5.22;;;3.67;;
29416;SDS011;28421;51.030;4.006;2024-02-16T12:08:49;5.85;;;3.45;;
29416;SDS011;28421;51.030;4.006;2024-02-16T12:11:16;4.03;;;2.83;;
29416;SDS011;28421;51.030;4.006;2024-02-16T12:13:41;2.65;;;2.45;;
29416;SDS011;28421;51.030;4.006;2024-02-16T12:16:07;4.90;;;2.88;;
29416;SDS011;28421;51.030;4.006;2024-02-16T12:18:32;3.88;;;3.08;;
29416;SDS011;28421;51.030;4.006;2024-02-16T12:23:25;2.40;;;2.20;;
29416;SDS011;28421;51.030;4.006;2024-02-16T12:25:50;4.90;;;3.63;;
29416;SDS011;28421;51.030;4.006;2024-02-16T12:28:16;3.97;;;2.78;;
29416;SDS011;28421;51.030;4.006;2024-02-16T12:30:41;3.47;;;2.70;;
29416;SDS011;28421;51.030;4.006;2024-02-16T12:33:07;2.72;;;2.08;;
29416;SDS011;28421;51.030;4.006;2024-02-16T12:35:32;4.75;;;1.90;;
29416;SDS011;28421;51.030;4.006;2024-02-16T12:37:59;3.78;;;2.67;;
29416;SDS011;28421;51.030;4.006;2024-02-16T12:40:25;2.72;;;2.08;;
29416;SDS011;28421;51.030;4.006;2024-02-16T12:42:52;3.53;;;2.50;;
29416;SDS011;28421;51.030;4.006;2024-02-16T12:45:17;6.00;;;3.15;;
29416;SDS011;28421;51.030;4.006;2024-02-16T12:47:43;2.40;;;2.20;;
29416;SDS011;28421;51.030;4.006;2024-02-16T12:50:08;3.63;;;3.22;;
29416;SDS011;28421;51.030;4.006;2024-02-16T12:52:34;2.63;;;2.42;;
29416;SDS011;28421;51.030;4.006;2024-02-16T12:55:03;2.22;;;2.08;;
29416;SDS011;28421;51.030;4.006;2024-02-16T12:57:30;3.65;;;3.05;;
29416;SDS011;28421;51.030;4.006;2024-02-16T12:59:55;3.60;;;2.17;;
29416;SDS011;28421;51.030;4.006;2024-02-16T13:02:21;2.83;;;2.33;;
29416;SDS011;28421;51.030;4.006;2024-02-16T13:04:47;3.00;;;2.45;;
29416;SDS011;28421;51.030;4.006;2024-02-16T13:07:13;2.80;;;2.47;;
29416;SDS011;28421;51.030;4.006;2024-02-16T13:09:38;2.42;;;2.22;;
29416;SDS011;28421;51.030;4.006;2024-02-16T13:12:04;3.17;;;2.60;;
29416;SDS011;28421;51.030;4.006;2024-02-16T13:14:30;2.78;;;2.45;;
29416;SDS011;28421;51.030;4.006;2024-02-16T13:16:55;3.13;;;2.60;;
29416;SDS011;28421;51.030;4.006;2024-02-16T13:19:20;3.40;;;3.03;;
29416;SDS011;28421;51.030;4.006;2024-02-16T13:21:46;4.75;;;3.45;;
29416;SDS011;28421;51.030;4.006;2024-02-16T13:24:11;6.22;;;4.10;;
29416;SDS011;28421;51.030;4.006;2024-02-16T13:26:37;3.42;;;3.00;;
29416;SDS011;28421;51.030;4.006;2024-02-16T13:29:02;3.70;;;3.17;;
29416;SDS011;28421;51.030;4.006;2024-02-16T13:31:28;2.30;;;2.10;;
29416;SDS011;28421;51.030;4.006;2024-02-16T13:33:54;3.08;;;2.60;;
29416;SDS011;28421;51.030;4.006;2024-02-16T13:36:20;3.53;;;2.20;;
29416;SDS011;28421;51.030;4.006;2024-02-16T13:38:46;2.30;;;2.10;;
29416;SDS011;28421;51.030;4.006;2024-02-16T13:41:11;2.83;;;2.28;;
29416;SDS011;28421;51.030;4.006;2024-02-16T13:43:37;2.15;;;1.92;;
29416;SDS011;28421;51.030;4.006;2024-02-16T13:46:02;3.50;;;1.80;;
29416;SDS011;28421;51.030;4.006;2024-02-16T13:48:29;1.55;;;1.45;;
29416;SDS011;28421;51.030;4.006;2024-02-16T13:50:55;2.63;;;2.42;;
29416;SDS011;28421;51.030;4.006;2024-02-16T13:53:21;2.85;;;1.92;;
29416;SDS011;28421;51.030;4.006;2024-02-16T13:55:48;2.13;;;2.00;;
29416;SDS011;28421;51.030;4.006;2024-02-16T13:58:14;2.95;;;2.60;;
29416;SDS011;28421;51.030;4.006;2024-02-16T14:00:39;2.40;;;2.10;;
29416;SDS011;28421;51.030;4.006;2024-02-16T14:03:06;4.05;;;3.40;;
29416;SDS011;28421;51.030;4.006;2024-02-16T14:05:37;2.65;;;2.45;;
29416;SDS011;28421;51.030;4.006;2024-02-16T14:08:04;2.47;;;2.28;;
29416;SDS011;28421;51.030;4.006;2024-02-16T14:10:30;2.42;;;2.13;;
29416;SDS011;28421;51.030;4.006;2024-02-16T14:12:57;3.25;;;2.40;;
29416;SDS011;28421;51.030;4.006;2024-02-16T14:15:23;3.97;;;2.67;;
29416;SDS011;28421;51.030;4.006;2024-02-16T14:17:49;3.40;;;2.50;;
29416;SDS011;28421;51.030;4.006;2024-02-16T14:20:14;1.80;;;1.65;;
29416;SDS011;28421;51.030;4.006;2024-02-16T14:22:41;2.67;;;1.83;;
29416;SDS011;28421;51.030;4.006;2024-02-16T14:25:06;2.85;;;2.13;;
29416;SDS011;28421;51.030;4.006;2024-02-16T14:27:35;1.60;;;1.50;;
29416;SDS011;28421;51.030;4.006;2024-02-16T14:30:01;2.03;;;1.83;;
29416;SDS011;28421;51.030;4.006;2024-02-16T14:32:27;4.15;;;2.40;;
29416;SDS011;28421;51.030;4.006;2024-02-16T14:34:52;2.83;;;2.30;;
29416;SDS011;28421;51.030;4.006;2024-02-16T14:37:18;2.83;;;1.88;;
29416;SDS011;28421;51.030;4.006;2024-02-16T14:39:44;3.15;;;2.30;;
29416;SDS011;28421;51.030;4.006;2024-02-16T14:42:09;2.50;;;1.98;;
29416;SDS011;28421;51.030;4.006;2024-02-16T14:44:34;2.00;;;1.63;;
29416;SDS011;28421;51.030;4.006;2024-02-16T14:47:01;2.83;;;2.10;;